createdAt,value
2022-11-01T00:14:43.530Z,11.4
2022-11-01T00:34:45.255Z,11.7
2022-11-01T00:44:45.408Z,11.8
2022-11-01T00:54:46.332Z,12
2022-11-01T01:04:47.142Z,12.4
2022-11-01T01:14:47.456Z,13.3
2022-11-01T01:24:47.574Z,14
2022-11-01T01:34:48.625Z,14.7
2022-11-01T01:44:49.036Z,15.4
2022-11-01T01:54:49.937Z,16.2
2022-11-01T02:14:51.929Z,16.7
2022-11-01T02:34:53.813Z,16.9
2022-11-01T02:54:54.697Z,16.8
2022-11-01T03:24:57.306Z,16.7
2022-11-01T03:34:57.579Z,16.6
2022-11-01T03:54:59.069Z,16.5
2022-11-01T04:05:05.455Z,16.5
2022-11-01T06:15:14.622Z,17
2022-11-01T06:25:15.559Z,16.9
2022-11-01T06:45:16.957Z,16.4
2022-11-01T06:55:17.875Z,16.1
2022-11-01T07:15:18.493Z,15.4
2022-11-01T07:55:21.411Z,14.6
2022-11-01T08:05:22.243Z,14.7
2022-11-01T08:15:22.807Z,14.8
2022-11-01T08:25:23.258Z,15
2022-11-01T08:35:24.042Z,15.1
2022-11-01T08:45:24.466Z,15.1
2022-11-01T08:55:24.690Z,15.1
2022-11-01T09:05:25.564Z,15.2
2022-11-01T09:15:25.998Z,15.4
2022-11-01T09:25:26.337Z,15.6
2022-11-01T09:35:26.835Z,15.8
2022-11-01T09:45:27.877Z,15.8
2022-11-01T09:55:28.237Z,16
2022-11-01T10:05:28.502Z,15.7
2022-11-01T10:15:28.806Z,15.8
2022-11-01T10:25:29.245Z,15.8
2022-11-01T10:45:30.127Z,16.1
2022-11-01T10:55:30.886Z,16.2
2022-11-01T11:05:31.974Z,16.3
2022-11-01T11:15:35.461Z,16.3
2022-11-01T11:25:34.065Z,16.5
2022-11-01T11:45:34.792Z,16.6
2022-11-01T11:55:35.233Z,16.8
2022-11-01T12:05:35.548Z,16.7
2022-11-01T12:15:41.063Z,16.7
2022-11-01T12:25:37.419Z,16.7
2022-11-01T12:45:38.317Z,17.1
2022-11-01T13:05:39.868Z,17.2
2022-11-01T13:15:40.033Z,17
2022-11-01T13:25:40.432Z,17.3
2022-11-01T13:35:40.523Z,17.2
2022-11-01T13:45:41.623Z,17.1
2022-11-01T13:55:41.896Z,16.9
2022-11-01T14:05:42.423Z,16.9
2022-11-01T14:25:43.144Z,16.8
2022-11-01T14:35:43.349Z,16.7
2022-11-01T14:45:43.929Z,16.4
2022-11-01T14:55:44.965Z,16.3
2022-11-01T15:05:45.993Z,16.2
2022-11-01T15:15:46.173Z,16.2
2022-11-01T15:25:46.584Z,15.9
2022-11-01T15:45:47.840Z,15.7
2022-11-01T15:55:48.030Z,15.4
2022-11-01T16:05:48.431Z,15.3
2022-11-01T16:15:49.064Z,15.2
2022-11-01T16:25:50.120Z,15
2022-11-01T16:45:50.986Z,14.6
2022-11-01T17:05:55.236Z,14.3
2022-11-01T17:15:51.589Z,14.4
2022-11-01T17:25:51.887Z,14.3
2022-11-01T17:35:52.186Z,14.4
2022-11-01T17:45:52.497Z,14.3
2022-11-01T17:55:52.882Z,14.3
2022-11-01T18:05:53.519Z,14.2
2022-11-01T18:15:53.966Z,14.2
2022-11-01T18:25:54.581Z,14
2022-11-01T18:35:55.432Z,14.1
2022-11-01T18:55:56.475Z,13.8
2022-11-01T19:05:57.137Z,13.7
2022-11-01T19:15:58.175Z,13.6
2022-11-01T19:25:58.853Z,13.6
2022-11-01T19:35:59.887Z,13.6
2022-11-01T19:46:00.786Z,13.6
2022-11-01T20:06:01.980Z,13.4
2022-11-01T20:16:02.393Z,13.2
2022-11-01T20:26:03.180Z,13.1
2022-11-01T20:36:08.422Z,13.1
2022-11-01T20:46:04.553Z,13
2022-11-01T21:06:05.985Z,13
2022-11-01T21:16:06.826Z,12.8
2022-11-01T21:36:08.039Z,12.9
2022-11-01T21:46:08.472Z,12.9
2022-11-01T22:16:09.555Z,13
2022-11-01T22:26:09.821Z,13
2022-11-01T22:36:10.844Z,13.1
2022-11-01T22:46:11.748Z,13.4
2022-11-01T23:16:13.535Z,13.6
2022-11-01T23:26:14.574Z,13.3
2022-11-01T23:36:15.368Z,13
2022-11-01T23:46:15.863Z,13.1
2022-11-01T23:56:16.892Z,13.2
